Time;durP1;ratioP1;P1;durP2;ratioP2;P2;SDS_P1;SDS_P2;PMS_P1;PMS_P2;Temp;Humidity;BMP_temperature;BMP_pressure;BME280_temperature;BME280_humidity;BME280_pressure;Samples;Min_cycle;Max_cycle;Signal;HPM_P1;HPM_P2
2023/12/22 00:01:29;;;;;;;24.65;3.53;;;;;;;;;;4971615;28;20111;-69
2023/12/22 00:03:54;;;;;;;21.35;4.00;;;;;;;;;;4971295;28;20034;-70
2023/12/22 00:06:20;;;;;;;30.70;4.10;;;;;;;;;;4972556;28;20577;-69
2023/12/22 00:08:45;;;;;;;24.08;4.75;;;;;;;;;;4979022;28;20022;-70
2023/12/22 00:11:10;;;;;;;15.75;2.22;;;;;;;;;;4971002;28;20034;-70
2023/12/22 00:13:35;;;;;;;25.17;3.42;;;;;;;;;;4970403;28;20023;-67
2023/12/22 00:16:01;;;;;;;21.98;3.33;;;;;;;;;;4971194;28;20026;-69
2023/12/22 00:18:26;;;;;;;30.10;2.80;;;;;;;;;;4971381;28;20015;-69
2023/12/22 00:20:51;;;;;;;26.65;4.15;;;;;;;;;;4971699;28;20069;-70
2023/12/22 00:23:17;;;;;;;21.58;2.47;;;;;;;;;;4971508;28;20069;-69
2023/12/22 00:25:42;;;;;;;20.65;3.08;;;;;;;;;;4971075;28;20053;-70
2023/12/22 00:28:07;;;;;;;13.07;2.70;;;;;;;;;;4971327;28;20102;-69
2023/12/22 00:30:32;;;;;;;15.63;3.42;;;;;;;;;;4971007;28;20029;-70
2023/12/22 00:32:57;;;;;;;19.15;3.03;;;;;;;;;;4971980;28;20023;-70
2023/12/22 00:35:23;;;;;;;19.60;2.72;;;;;;;;;;4971863;28;20026;-70
2023/12/22 00:37:48;;;;;;;17.27;3.05;;;;;;;;;;4971766;28;20059;-69
2023/12/22 00:40:13;;;;;;;19.08;2.90;;;;;;;;;;4971778;28;20121;-69
2023/12/22 00:42:39;;;;;;;18.17;3.35;;;;;;;;;;4971653;28;20497;-71
2023/12/22 00:45:04;;;;;;;14.85;2.22;;;;;;;;;;4966106;28;20018;-71
2023/12/22 00:47:29;;;;;;;9.85;2.22;;;;;;;;;;4970607;28;20037;-70
2023/12/22 00:49:55;;;;;;;20.58;2.67;;;;;;;;;;4971231;28;20015;-70
2023/12/22 00:52:20;;;;;;;19.92;2.20;;;;;;;;;;4970935;28;20030;-69
2023/12/22 00:54:45;;;;;;;17.25;2.90;;;;;;;;;;4934969;28;1081579;-70
2023/12/22 00:57:11;;;;;;;21.52;3.45;;;;;;;;;;4972285;28;20069;-70
2023/12/22 00:59:36;;;;;;;23.85;3.33;;;;;;;;;;4971321;28;20022;-69
2023/12/22 01:02:02;;;;;;;20.52;2.92;;;;;;;;;;4970878;28;20026;-69
2023/12/22 01:04:27;;;;;;;20.70;3.05;;;;;;;;;;4971583;28;20070;-70
2023/12/22 01:06:52;;;;;;;17.73;3.35;;;;;;;;;;4972716;28;20030;-70
2023/12/22 01:09:19;;;;;;;25.95;2.75;;;;;;;;;;4971341;28;20074;-69
2023/12/22 01:11:44;;;;;;;19.55;3.00;;;;;;;;;;4971279;28;20023;-70
2023/12/22 01:14:10;;;;;;;20.88;3.35;;;;;;;;;;4970966;28;20070;-70
2023/12/22 01:16:36;;;;;;;16.60;3.00;;;;;;;;;;4970962;28;20072;-69
2023/12/22 01:19:01;;;;;;;22.50;3.30;;;;;;;;;;4971678;28;20896;-69
2023/12/22 01:21:26;;;;;;;25.20;3.25;;;;;;;;;;4971601;28;20430;-70
2023/12/22 01:23:51;;;;;;;26.67;4.10;;;;;;;;;;4964272;28;20105;-70
2023/12/22 01:26:17;;;;;;;18.38;2.83;;;;;;;;;;4971909;28;20050;-70
2023/12/22 01:28:42;;;;;;;19.20;3.53;;;;;;;;;;4971754;28;20118;-69
2023/12/22 01:31:07;;;;;;;23.42;3.35;;;;;;;;;;4971978;28;20093;-70
2023/12/22 01:33:32;;;;;;;14.73;3.13;;;;;;;;;;4971622;28;20440;-68
2023/12/22 01:35:57;;;;;;;21.08;2.90;;;;;;;;;;4971446;28;20026;-70
2023/12/22 01:38:23;;;;;;;26.20;3.80;;;;;;;;;;4970582;28;20022;-69
2023/12/22 01:40:48;;;;;;;27.85;4.22;;;;;;;;;;4971419;28;20026;-68
2023/12/22 01:43:14;;;;;;;32.10;5.15;;;;;;;;;;4971441;28;20023;-70
2023/12/22 01:45:43;;;;;;;18.83;3.17;;;;;;;;;;4969346;28;20424;-69
2023/12/22 01:48:09;;;;;;;26.42;5.03;;;;;;;;;;4972308;28;20102;-69
2023/12/22 01:50:34;;;;;;;29.38;4.93;;;;;;;;;;4970709;28;20170;-70
2023/12/22 01:52:59;;;;;;;25.80;4.43;;;;;;;;;;4970874;28;20163;-70
2023/12/22 01:55:25;;;;;;;24.77;3.15;;;;;;;;;;4970258;28;20023;-69
2023/12/22 01:57:50;;;;;;;28.67;3.90;;;;;;;;;;4970721;28;20110;-69
2023/12/22 02:00:16;;;;;;;21.45;3.20;;;;;;;;;;4970701;28;20034;-67
2023/12/22 02:02:44;;;;;;;19.27;2.92;;;;;;;;;;4969303;28;20085;-68
2023/12/22 02:05:11;;;;;;;20.13;2.50;;;;;;;;;;4966104;28;20109;-68
2023/12/22 02:07:40;;;;;;;27.23;3.80;;;;;;;;;;4970851;28;20023;-69
2023/12/22 02:10:06;;;;;;;20.05;3.08;;;;;;;;;;4970106;28;20633;-69
2023/12/22 02:12:31;;;;;;;24.60;4.00;;;;;;;;;;4970314;28;20023;-69
2023/12/22 02:14:57;;;;;;;33.38;4.72;;;;;;;;;;4970557;28;20106;-70
2023/12/22 02:17:29;;;;;;;16.27;2.78;;;;;;;;;;4969763;28;20025;-68
2023/12/22 02:19:55;;;;;;;28.67;2.67;;;;;;;;;;4964190;28;20073;-69
2023/12/22 02:22:21;;;;;;;17.75;2.80;;;;;;;;;;4970334;28;20049;-69
2023/12/22 02:24:46;;;;;;;27.30;4.40;;;;;;;;;;4969876;28;20054;-69
2023/12/22 02:27:13;;;;;;;25.85;4.25;;;;;;;;;;4970242;28;20109;-71
2023/12/22 02:29:42;;;;;;;13.13;2.03;;;;;;;;;;4970721;28;20054;-70
2023/12/22 02:32:09;;;;;;;20.52;3.33;;;;;;;;;;4970784;28;20029;-70
2023/12/22 02:34:35;;;;;;;25.33;4.32;;;;;;;;;;4970638;28;20023;-70
2023/12/22 02:37:01;;;;;;;24.73;3.75;;;;;;;;;;4972854;28;20047;-69
2023/12/22 02:39:27;;;;;;;17.05;3.42;;;;;;;;;;4970954;28;20029;-67
2023/12/22 02:41:52;;;;;;;24.75;3.85;;;;;;;;;;4970369;28;20022;-68
2023/12/22 02:44:17;;;;;;;20.20;2.83;;;;;;;;;;4968711;28;20511;-68
2023/12/22 02:46:43;;;;;;;26.08;3.80;;;;;;;;;;4971268;28;20034;-68
2023/12/22 02:49:08;;;;;;;18.73;2.80;;;;;;;;;;4968783;28;20015;-68
2023/12/22 02:51:34;;;;;;;13.02;2.35;;;;;;;;;;4969897;28;20102;-68
2023/12/22 02:53:59;;;;;;;29.63;3.65;;;;;;;;;;4969363;28;20383;-68
2023/12/22 02:56:24;;;;;;;26.35;3.25;;;;;;;;;;4969736;28;20105;-68
2023/12/22 02:58:49;;;;;;;23.95;2.85;;;;;;;;;;4970233;28;20109;-68
2023/12/22 03:01:14;;;;;;;29.15;3.25;;;;;;;;;;4970226;28;20027;-68
2023/12/22 03:03:40;;;;;;;13.35;2.85;;;;;;;;;;4967667;28;20015;-68
2023/12/22 03:06:05;;;;;;;20.52;2.47;;;;;;;;;;4970203;28;20045;-67
2023/12/22 03:08:30;;;;;;;14.55;2.22;;;;;;;;;;4970914;28;20019;-69
2023/12/22 03:10:55;;;;;;;11.25;2.17;;;;;;;;;;4972761;28;20023;-68
2023/12/22 03:13:21;;;;;;;28.48;3.58;;;;;;;;;;4973509;28;20023;-68
2023/12/22 03:15:47;;;;;;;11.13;2.33;;;;;;;;;;4973530;28;20022;-68
2023/12/22 03:18:12;;;;;;;19.27;2.33;;;;;;;;;;4973823;28;20042;-68
2023/12/22 03:20:38;;;;;;;20.25;3.08;;;;;;;;;;4974031;28;20018;-68
2023/12/22 03:23:03;;;;;;;18.77;3.28;;;;;;;;;;4974378;28;20077;-69
2023/12/22 03:25:28;;;;;;;20.40;2.83;;;;;;;;;;4973024;28;20073;-69
2023/12/22 03:27:53;;;;;;;20.75;3.00;;;;;;;;;;4973676;28;20022;-70
2023/12/22 03:30:19;;;;;;;11.55;2.38;;;;;;;;;;4973160;28;20080;-68
2023/12/22 03:32:44;;;;;;;15.13;2.08;;;;;;;;;;4973680;28;20015;-69
2023/12/22 03:35:09;;;;;;;10.63;2.22;;;;;;;;;;4973531;28;20490;-70
2023/12/22 03:37:34;;;;;;;14.85;3.03;;;;;;;;;;4972959;28;20097;-70
2023/12/22 03:40:00;;;;;;;12.70;1.92;;;;;;;;;;4972988;28;20096;-70
2023/12/22 03:42:25;;;;;;;7.50;1.95;;;;;;;;;;4973145;28;20026;-69
2023/12/22 03:44:50;;;;;;;11.60;1.98;;;;;;;;;;4968306;28;20034;-71
2023/12/22 03:47:15;;;;;;;13.13;1.92;;;;;;;;;;4974480;28;20018;-69
2023/12/22 03:49:41;;;;;;;13.15;1.92;;;;;;;;;;4973193;28;20034;-69
2023/12/22 03:52:06;;;;;;;18.70;2.10;;;;;;;;;;4973207;28;20021;-70
2023/12/22 03:54:31;;;;;;;20.98;3.28;;;;;;;;;;4972658;28;20073;-70
2023/12/22 03:56:56;;;;;;;11.52;2.08;;;;;;;;;;4972696;28;20051;-70
2023/12/22 03:59:21;;;;;;;10.50;2.35;;;;;;;;;;4972670;28;20027;-71
2023/12/22 04:01:50;;;;;;;14.65;1.63;;;;;;;;;;4973240;28;20049;-69
2023/12/22 04:04:15;;;;;;;16.08;2.25;;;;;;;;;;4970926;28;20027;-70
2023/12/22 04:06:40;;;;;;;8.68;1.23;;;;;;;;;;4973612;28;20502;-70
2023/12/22 04:09:06;;;;;;;6.47;1.17;;;;;;;;;;4973007;28;20023;-68
2023/12/22 04:11:31;;;;;;;5.80;0.80;;;;;;;;;;4972317;28;20101;-70
2023/12/22 04:13:56;;;;;;;6.45;1.23;;;;;;;;;;4972726;28;20026;-70
2023/12/22 04:16:21;;;;;;;4.82;1.02;;;;;;;;;;4972223;28;20136;-69
2023/12/22 04:18:46;;;;;;;6.57;1.00;;;;;;;;;;4972979;28;20027;-69
2023/12/22 04:21:12;;;;;;;4.85;1.08;;;;;;;;;;4971588;28;20086;-70
2023/12/22 04:23:37;;;;;;;5.15;1.08;;;;;;;;;;4972378;28;20081;-69
2023/12/22 04:26:02;;;;;;;7.35;1.20;;;;;;;;;;4972138;28;20031;-69
2023/12/22 04:28:27;;;;;;;9.75;1.30;;;;;;;;;;4972573;28;20030;-68
2023/12/22 04:30:52;;;;;;;7.50;1.05;;;;;;;;;;4972401;28;20093;-69
2023/12/22 04:33:18;;;;;;;5.97;1.38;;;;;;;;;;4972546;28;20046;-70
2023/12/22 04:35:43;;;;;;;4.65;1.15;;;;;;;;;;4972247;28;20069;-69
2023/12/22 04:38:08;;;;;;;13.43;1.05;;;;;;;;;;4971989;28;20106;-70
2023/12/22 04:40:33;;;;;;;5.53;1.13;;;;;;;;;;4971788;28;20057;-69
2023/12/22 04:42:59;;;;;;;12.70;1.40;;;;;;;;;;4971868;28;20417;-68
2023/12/22 04:45:24;;;;;;;10.13;1.27;;;;;;;;;;4971514;28;20759;-69
2023/12/22 04:47:49;;;;;;;5.05;1.45;;;;;;;;;;4971990;28;20038;-68
2023/12/22 04:50:14;;;;;;;8.98;1.52;;;;;;;;;;4972530;28;20027;-68
2023/12/22 04:52:39;;;;;;;11.85;1.77;;;;;;;;;;4971788;28;20015;-69
2023/12/22 04:55:05;;;;;;;8.15;1.50;;;;;;;;;;4971782;28;20026;-69
2023/12/22 04:57:30;;;;;;;10.20;1.73;;;;;;;;;;4971569;28;20030;-69
2023/12/22 04:59:55;;;;;;;6.82;1.40;;;;;;;;;;4971744;28;20031;-69
2023/12/22 05:02:20;;;;;;;7.53;1.33;;;;;;;;;;4971682;28;20027;-68
2023/12/22 05:04:45;;;;;;;11.27;1.50;;;;;;;;;;4970171;28;20019;-70
2023/12/22 05:07:11;;;;;;;8.15;1.67;;;;;;;;;;4972495;28;20045;-69
2023/12/22 05:09:36;;;;;;;7.93;1.20;;;;;;;;;;4971114;28;20015;-70
2023/12/22 05:12:01;;;;;;;5.15;1.38;;;;;;;;;;4971817;28;20014;-70
2023/12/22 05:14:26;;;;;;;13.95;2.00;;;;;;;;;;4971073;28;20038;-69
2023/12/22 05:16:55;;;;;;;12.70;1.58;;;;;;;;;;4971112;28;20114;-71
2023/12/22 05:19:20;;;;;;;16.40;2.13;;;;;;;;;;4971795;28;20084;-69
2023/12/22 05:21:45;;;;;;;7.38;1.85;;;;;;;;;;4971667;28;20023;-69
2023/12/22 05:24:10;;;;;;;7.72;1.50;;;;;;;;;;4971638;28;20158;-70
2023/12/22 05:26:35;;;;;;;8.75;1.45;;;;;;;;;;4970665;28;20089;-69
2023/12/22 05:29:01;;;;;;;5.90;1.35;;;;;;;;;;4971346;28;20026;-68
2023/12/22 05:31:27;;;;;;;16.85;2.47;;;;;;;;;;4971022;28;20403;-68
2023/12/22 05:33:52;;;;;;;9.18;1.52;;;;;;;;;;4971044;28;20030;-69
2023/12/22 05:36:18;;;;;;;9.00;1.60;;;;;;;;;;4971064;28;20021;-69
2023/12/22 05:38:43;;;;;;;15.88;2.03;;;;;;;;;;4970685;28;20026;-70
2023/12/22 05:41:08;;;;;;;14.82;1.45;;;;;;;;;;4970727;28;20027;-69
2023/12/22 05:43:33;;;;;;;10.38;2.22;;;;;;;;;;4970682;28;20030;-70
2023/12/22 05:45:59;;;;;;;8.43;1.60;;;;;;;;;;4970515;28;20019;-69
2023/12/22 05:48:25;;;;;;;11.43;1.92;;;;;;;;;;4972395;28;20101;-69
2023/12/22 05:50:50;;;;;;;11.27;2.35;;;;;;;;;;4971090;28;20041;-70
2023/12/22 05:53:15;;;;;;;10.52;1.90;;;;;;;;;;4970238;28;20033;-69
2023/12/22 05:55:40;;;;;;;10.90;1.67;;;;;;;;;;4970366;28;20581;-67
2023/12/22 05:58:06;;;;;;;17.27;1.98;;;;;;;;;;4970191;28;20449;-67
2023/12/22 06:00:31;;;;;;;13.80;1.95;;;;;;;;;;4970305;28;20030;-68
2023/12/22 06:02:56;;;;;;;9.75;1.77;;;;;;;;;;4967259;28;20031;-68
2023/12/22 06:05:22;;;;;;;12.60;1.77;;;;;;;;;;4970885;28;20033;-67
2023/12/22 06:07:47;;;;;;;7.18;1.67;;;;;;;;;;4971733;28;20033;-67
2023/12/22 06:10:12;;;;;;;18.75;2.88;;;;;;;;;;4970510;28;20076;-70
2023/12/22 06:12:37;;;;;;;7.65;1.50;;;;;;;;;;4971479;28;20106;-69
2023/12/22 06:15:03;;;;;;;8.68;1.10;;;;;;;;;;4971094;28;20021;-69
2023/12/22 06:17:28;;;;;;;6.43;1.88;;;;;;;;;;4970274;28;20033;-68
2023/12/22 06:19:53;;;;;;;5.03;0.90;;;;;;;;;;4970376;28;20557;-69
2023/12/22 06:22:18;;;;;;;7.40;2.03;;;;;;;;;;4967216;28;20494;-69
2023/12/22 06:24:44;;;;;;;8.32;1.35;;;;;;;;;;4970480;28;20383;-69
2023/12/22 06:27:10;;;;;;;5.03;1.20;;;;;;;;;;4960697;28;20175;-69
2023/12/22 06:29:35;;;;;;;12.15;1.90;;;;;;;;;;4969155;28;20466;-69
2023/12/22 06:32:00;;;;;;;15.63;1.92;;;;;;;;;;4970797;28;20427;-69
2023/12/22 06:34:25;;;;;;;13.15;1.88;;;;;;;;;;4969445;28;20023;-68
2023/12/22 06:36:51;;;;;;;12.02;1.63;;;;;;;;;;4970434;28;20410;-68
2023/12/22 06:39:16;;;;;;;17.63;2.65;;;;;;;;;;4967188;28;20659;-69
2023/12/22 06:41:41;;;;;;;8.05;1.48;;;;;;;;;;4965442;28;20062;-70
2023/12/22 06:44:06;;;;;;;13.10;2.03;;;;;;;;;;4969371;28;20110;-69
2023/12/22 06:46:32;;;;;;;26.20;2.80;;;;;;;;;;4972898;28;20061;-71
2023/12/22 06:48:58;;;;;;;12.85;1.67;;;;;;;;;;4971630;28;20049;-71
2023/12/22 06:51:24;;;;;;;7.28;1.67;;;;;;;;;;4969464;28;20022;-70
2023/12/22 06:53:50;;;;;;;20.60;2.67;;;;;;;;;;4990205;23;20054;-69
2023/12/22 06:56:22;;;;;;;12.65;1.50;;;;;;;;;;4956057;28;20028;-71
2023/12/22 06:58:48;;;;;;;23.05;2.42;;;;;;;;;;4956410;28;20042;-71
2023/12/22 07:01:20;;;;;;;16.42;2.50;;;;;;;;;;4953574;28;20717;-72
2023/12/22 07:03:46;;;;;;;17.40;1.85;;;;;;;;;;4962657;28;20039;-71
2023/12/22 07:06:11;;;;;;;27.33;3.13;;;;;;;;;;4969233;28;20565;-70
2023/12/22 07:08:36;;;;;;;11.55;2.60;;;;;;;;;;4968945;28;20026;-70
2023/12/22 07:11:02;;;;;;;22.25;2.50;;;;;;;;;;4953890;28;20024;-70
2023/12/22 07:13:27;;;;;;;5.53;1.77;;;;;;;;;;4967238;28;20375;-70
2023/12/22 07:15:52;;;;;;;13.45;1.80;;;;;;;;;;4964900;28;20018;-71
2023/12/22 07:18:17;;;;;;;12.90;1.88;;;;;;;;;;4968688;28;20041;-70
2023/12/22 07:20:42;;;;;;;21.58;3.17;;;;;;;;;;4967983;28;20108;-70
2023/12/22 07:23:09;;;;;;;13.52;1.92;;;;;;;;;;4966364;28;20404;-70
2023/12/22 07:25:36;;;;;;;15.90;2.45;;;;;;;;;;4963046;28;20107;-73
2023/12/22 07:28:01;;;;;;;10.13;1.77;;;;;;;;;;4964349;28;20034;-72
2023/12/22 07:30:26;;;;;;;4.28;1.00;;;;;;;;;;4964277;28;20031;-70
2023/12/22 07:32:52;;;;;;;6.68;1.55;;;;;;;;;;4962913;28;20041;-72
2023/12/22 07:35:17;;;;;;;5.20;1.40;;;;;;;;;;4970798;28;20126;-69
2023/12/22 07:37:42;;;;;;;9.63;1.60;;;;;;;;;;4970037;28;20031;-73
2023/12/22 07:40:08;;;;;;;7.75;1.48;;;;;;;;;;4969461;28;20031;-72
2023/12/22 07:42:34;;;;;;;8.38;1.80;;;;;;;;;;4968344;28;20022;-72
2023/12/22 07:44:59;;;;;;;9.45;2.03;;;;;;;;;;4968695;28;20026;-72
2023/12/22 07:47:24;;;;;;;3.08;0.93;;;;;;;;;;4969719;28;20037;-72
2023/12/22 07:49:49;;;;;;;11.77;1.63;;;;;;;;;;4967838;28;20023;-71
2023/12/22 07:52:15;;;;;;;13.90;1.80;;;;;;;;;;4967665;28;20023;-72
2023/12/22 07:54:40;;;;;;;11.23;1.45;;;;;;;;;;4968892;28;20652;-71
2023/12/22 07:57:05;;;;;;;8.05;1.17;;;;;;;;;;4971758;28;20015;-71
2023/12/22 07:59:30;;;;;;;5.80;1.15;;;;;;;;;;4971083;28;20023;-73
2023/12/22 08:01:56;;;;;;;16.77;1.85;;;;;;;;;;4969852;28;20099;-73
2023/12/22 08:04:21;;;;;;;14.43;1.75;;;;;;;;;;4966846;28;20801;-71
2023/12/22 08:06:46;;;;;;;8.02;1.10;;;;;;;;;;4973283;28;20394;-71
2023/12/22 08:09:11;;;;;;;14.10;2.70;;;;;;;;;;4972491;28;20030;-73
2023/12/22 08:11:37;;;;;;;7.43;1.13;;;;;;;;;;4972671;28;20029;-74
2023/12/22 08:14:03;;;;;;;10.60;1.63;;;;;;;;;;4967249;28;20350;-72
2023/12/22 08:16:28;;;;;;;7.72;1.17;;;;;;;;;;4964551;28;20091;-72
2023/12/22 08:18:53;;;;;;;8.40;1.77;;;;;;;;;;4970550;28;20652;-72
2023/12/22 08:21:18;;;;;;;7.03;0.77;;;;;;;;;;4967445;28;20037;-72
2023/12/22 08:23:44;;;;;;;12.63;1.67;;;;;;;;;;4969415;28;20081;-73
2023/12/22 08:26:09;;;;;;;5.95;1.67;;;;;;;;;;4972685;28;20023;-73
2023/12/22 08:28:34;;;;;;;8.50;1.83;;;;;;;;;;4969636;28;20030;-73
2023/12/22 08:30:59;;;;;;;6.72;1.13;;;;;;;;;;4967293;28;20034;-72
2023/12/22 08:33:25;;;;;;;8.60;1.30;;;;;;;;;;4968786;28;20026;-73
2023/12/22 08:35:50;;;;;;;16.48;1.67;;;;;;;;;;4966506;28;20019;-73
2023/12/22 08:38:15;;;;;;;3.25;1.08;;;;;;;;;;4971655;28;20034;-74
2023/12/22 08:40:40;;;;;;;10.50;1.58;;;;;;;;;;4965363;28;20035;-74
2023/12/22 08:43:06;;;;;;;8.15;1.50;;;;;;;;;;4970947;28;20053;-74
2023/12/22 08:45:31;;;;;;;6.50;1.15;;;;;;;;;;4959431;28;20149;-73
2023/12/22 08:47:57;;;;;;;5.28;1.25;;;;;;;;;;4964995;28;20097;-72
2023/12/22 08:50:22;;;;;;;6.47;1.20;;;;;;;;;;4971561;28;20023;-73
2023/12/22 08:52:48;;;;;;;9.77;1.88;;;;;;;;;;4971362;28;20026;-71
2023/12/22 08:55:13;;;;;;;19.67;1.60;;;;;;;;;;4968693;28;20502;-74
2023/12/22 08:57:39;;;;;;;8.05;1.40;;;;;;;;;;4971567;28;20026;-70
2023/12/22 09:00:06;;;;;;;8.38;2.30;;;;;;;;;;4968115;28;20086;-71
2023/12/22 09:02:31;;;;;;;4.63;1.20;;;;;;;;;;4969146;28;20038;-70
2023/12/22 09:04:56;;;;;;;5.05;1.15;;;;;;;;;;4963863;28;20027;-72
2023/12/22 09:07:22;;;;;;;3.78;1.13;;;;;;;;;;4965881;28;20031;-73
2023/12/22 09:09:47;;;;;;;4.28;0.95;;;;;;;;;;4958522;28;20027;-72
2023/12/22 09:12:13;;;;;;;6.47;0.82;;;;;;;;;;4971871;28;20025;-71
2023/12/22 09:14:38;;;;;;;6.75;1.13;;;;;;;;;;4971360;28;20052;-69
2023/12/22 09:17:03;;;;;;;4.00;0.90;;;;;;;;;;4966385;28;20034;-72
2023/12/22 09:20:04;;;;;;;4.65;1.02;;;;;;;;;;4970217;28;20019;-72
2023/12/22 09:22:29;;;;;;;2.47;0.85;;;;;;;;;;4971156;28;20030;-70
2023/12/22 09:25:02;;;;;;;8.05;1.08;;;;;;;;;;4968670;28;20025;-71
2023/12/22 09:27:46;;;;;;;3.08;0.50;;;;;;;;;;4969173;28;20105;-72
2023/12/22 09:30:11;;;;;;;0.65;0.65;;;;;;;;;;4975463;28;20338;-72
2023/12/22 09:32:36;;;;;;;4.72;0.85;;;;;;;;;;4971456;28;20077;-73
2023/12/22 09:35:02;;;;;;;1.33;0.63;;;;;;;;;;4971494;28;20034;-71
2023/12/22 09:37:28;;;;;;;1.70;0.60;;;;;;;;;;4969334;28;20023;-72
2023/12/22 09:39:53;;;;;;;0.50;0.40;;;;;;;;;;4968005;28;20038;-73
2023/12/22 09:42:23;;;;;;;0.75;0.50;;;;;;;;;;4968834;28;20030;-72
2023/12/22 09:44:49;;;;;;;1.60;0.50;;;;;;;;;;4965449;28;20022;-73
2023/12/22 09:47:15;;;;;;;0.82;0.50;;;;;;;;;;4971315;28;20399;-74
2023/12/22 09:49:41;;;;;;;0.65;0.40;;;;;;;;;;4969985;28;20394;-73
2023/12/22 09:52:07;;;;;;;0.50;0.40;;;;;;;;;;4963819;28;20019;-72
2023/12/22 09:54:33;;;;;;;0.40;0.40;;;;;;;;;;4966326;28;20027;-72
2023/12/22 09:56:59;;;;;;;0.32;0.30;;;;;;;;;;4966762;28;20106;-74
2023/12/22 09:59:25;;;;;;;0.50;0.50;;;;;;;;;;4963902;28;20486;-73
2023/12/22 10:01:51;;;;;;;1.25;0.60;;;;;;;;;;4970881;28;20011;-73
2023/12/22 10:04:16;;;;;;;0.73;0.40;;;;;;;;;;4967735;28;20034;-74
2023/12/22 10:06:41;;;;;;;2.17;0.52;;;;;;;;;;4972082;28;20054;-73
2023/12/22 10:09:08;;;;;;;0.35;0.35;;;;;;;;;;4970607;28;20023;-72
2023/12/22 10:11:34;;;;;;;2.38;0.40;;;;;;;;;;4962641;28;20391;-72
2023/12/22 10:14:01;;;;;;;2.67;0.50;;;;;;;;;;4967716;28;20015;-72
2023/12/22 10:16:27;;;;;;;3.58;0.50;;;;;;;;;;4969867;28;20450;-74
2023/12/22 10:18:52;;;;;;;3.20;0.82;;;;;;;;;;4968360;28;20030;-74
2023/12/22 10:21:29;;;;;;;2.58;1.08;;;;;;;;;;4970782;28;20681;-72
2023/12/22 10:24:01;;;;;;;4.20;0.75;;;;;;;;;;4961866;28;20093;-73
2023/12/22 10:26:26;;;;;;;6.20;0.90;;;;;;;;;;4967801;28;20050;-72
2023/12/22 10:28:52;;;;;;;3.17;0.85;;;;;;;;;;4970585;28;20371;-71
2023/12/22 10:31:17;;;;;;;1.70;0.80;;;;;;;;;;4970924;28;20593;-72
2023/12/22 10:33:45;;;;;;;2.90;0.77;;;;;;;;;;4970427;28;20149;-71
2023/12/22 10:36:10;;;;;;;5.32;1.23;;;;;;;;;;4964822;28;20030;-73
2023/12/22 10:38:35;;;;;;;10.88;1.00;;;;;;;;;;4969234;28;20023;-73
2023/12/22 10:41:01;;;;;;;3.40;0.90;;;;;;;;;;4969974;28;20049;-70
2023/12/22 10:43:27;;;;;;;12.82;2.17;;;;;;;;;;4966677;28;20026;-73
2023/12/22 10:45:52;;;;;;;9.02;1.55;;;;;;;;;;4970423;28;20394;-72
2023/12/22 10:48:21;;;;;;;8.32;1.40;;;;;;;;;;4969881;28;20379;-72
2023/12/22 10:50:47;;;;;;;8.98;1.38;;;;;;;;;;4970021;28;20023;-72
2023/12/22 10:53:12;;;;;;;4.28;1.00;;;;;;;;;;4970304;28;20038;-69
2023/12/22 10:55:37;;;;;;;19.30;2.00;;;;;;;;;;4967664;28;20029;-74
2023/12/22 10:58:03;;;;;;;13.02;1.63;;;;;;;;;;4970376;28;20034;-72
2023/12/22 11:00:28;;;;;;;6.70;1.10;;;;;;;;;;4969934;28;20041;-70
2023/12/22 11:02:58;;;;;;;7.45;1.85;;;;;;;;;;4969665;28;20085;-72
2023/12/22 11:05:26;;;;;;;9.48;1.27;;;;;;;;;;4969932;28;20019;-73
2023/12/22 11:07:53;;;;;;;11.70;1.67;;;;;;;;;;4963493;28;20049;-72
2023/12/22 11:10:20;;;;;;;9.20;1.25;;;;;;;;;;4968777;28;20117;-72
2023/12/22 11:12:46;;;;;;;10.25;1.35;;;;;;;;;;4969242;28;20030;-70
2023/12/22 11:15:12;;;;;;;9.18;2.28;;;;;;;;;;4969772;28;20046;-69
2023/12/22 11:17:42;;;;;;;5.57;1.23;;;;;;;;;;4969136;28;20459;-70
2023/12/22 11:20:12;;;;;;;9.75;1.65;;;;;;;;;;4969999;28;20065;-72
2023/12/22 11:22:38;;;;;;;12.52;3.08;;;;;;;;;;4969774;28;20372;-72
2023/12/22 11:25:04;;;;;;;10.57;1.25;;;;;;;;;;4965645;28;20117;-71
2023/12/22 11:27:32;;;;;;;12.50;2.47;;;;;;;;;;4963778;28;20021;-71
2023/12/22 11:30:00;;;;;;;9.05;1.67;;;;;;;;;;4959482;28;20097;-72
2023/12/22 11:32:27;;;;;;;14.95;1.67;;;;;;;;;;4963718;28;20023;-69
2023/12/22 11:34:53;;;;;;;21.00;2.03;;;;;;;;;;4973170;28;20014;-72
2023/12/22 11:37:18;;;;;;;17.13;2.17;;;;;;;;;;4967774;28;20132;-72
2023/12/22 11:39:44;;;;;;;12.23;2.28;;;;;;;;;;4973976;28;20664;-73
2023/12/22 11:42:16;;;;;;;19.92;2.15;;;;;;;;;;4972867;28;20023;-72
2023/12/22 11:44:41;;;;;;;13.02;2.85;;;;;;;;;;4967270;28;20026;-70
2023/12/22 11:47:07;;;;;;;11.85;2.10;;;;;;;;;;4973104;28;20026;-71
2023/12/22 11:49:36;;;;;;;12.88;2.30;;;;;;;;;;4973418;28;20022;-71
2023/12/22 11:52:11;;;;;;;12.15;1.58;;;;;;;;;;4972775;28;20026;-73
2023/12/22 11:54:43;;;;;;;13.77;1.58;;;;;;;;;;4966036;28;20035;-74
2023/12/22 11:57:27;;;;;;;5.82;1.27;;;;;;;;;;4966978;28;20030;-72
2023/12/22 11:59:52;;;;;;;9.85;1.90;;;;;;;;;;4973956;28;20023;-73
2023/12/22 12:02:17;;;;;;;12.70;2.40;;;;;;;;;;4968369;28;20161;-72
2023/12/22 12:04:43;;;;;;;15.73;1.92;;;;;;;;;;4972081;28;20573;-73
2023/12/22 12:07:27;;;;;;;14.98;2.42;;;;;;;;;;4973755;28;20065;-73
2023/12/22 12:09:52;;;;;;;11.27;1.70;;;;;;;;;;4973812;28;20022;-73
2023/12/22 12:12:18;;;;;;;14.40;1.83;;;;;;;;;;4973277;28;20106;-74
2023/12/22 12:14:44;;;;;;;24.85;2.85;;;;;;;;;;4973064;28;20106;-72
2023/12/22 12:17:13;;;;;;;9.02;1.15;;;;;;;;;;4967291;28;20012;-70
2023/12/22 12:19:38;;;;;;;8.07;1.60;;;;;;;;;;4968414;28;20038;-73
2023/12/22 12:22:04;;;;;;;14.35;3.03;;;;;;;;;;4972715;28;20027;-72
2023/12/22 12:24:29;;;;;;;11.57;1.98;;;;;;;;;;4973283;28;20023;-72
2023/12/22 12:26:55;;;;;;;11.05;1.80;;;;;;;;;;4973187;28;20054;-73
2023/12/22 12:29:21;;;;;;;17.40;1.73;;;;;;;;;;4973939;28;20023;-72
2023/12/22 12:31:46;;;;;;;12.07;1.88;;;;;;;;;;4973139;28;20375;-74
2023/12/22 12:34:14;;;;;;;10.25;1.77;;;;;;;;;;4972735;28;20485;-72
2023/12/22 12:36:40;;;;;;;14.38;2.38;;;;;;;;;;4971439;28;20019;-73
2023/12/22 12:39:09;;;;;;;7.60;1.52;;;;;;;;;;4972590;28;20023;-73
2023/12/22 12:41:40;;;;;;;13.93;2.35;;;;;;;;;;4972941;28;20053;-71
2023/12/22 12:44:06;;;;;;;9.57;1.55;;;;;;;;;;4971863;28;20034;-72
2023/12/22 12:46:35;;;;;;;19.23;2.38;;;;;;;;;;4974705;28;20398;-72
2023/12/22 12:49:07;;;;;;;20.02;2.35;;;;;;;;;;4967300;28;20525;-72
2023/12/22 12:51:39;;;;;;;18.27;1.92;;;;;;;;;;4964726;28;20042;-70
2023/12/22 12:54:05;;;;;;;7.28;2.22;;;;;;;;;;4968006;28;20046;-71
2023/12/22 12:56:44;;;;;;;11.35;2.28;;;;;;;;;;4971700;28;20019;-72
2023/12/22 12:59:10;;;;;;;20.83;1.63;;;;;;;;;;4972747;28;20030;-70
2023/12/22 13:01:45;;;;;;;17.33;2.30;;;;;;;;;;4971529;28;20027;-73
2023/12/22 13:04:12;;;;;;;7.75;1.63;;;;;;;;;;4972474;28;20090;-71
2023/12/22 13:06:50;;;;;;;13.48;1.65;;;;;;;;;;4972669;28;20110;-72
2023/12/22 13:09:16;;;;;;;4.95;1.50;;;;;;;;;;4972341;28;20414;-70
2023/12/22 13:11:46;;;;;;;7.80;1.85;;;;;;;;;;4972271;28;20019;-72
2023/12/22 13:14:11;;;;;;;8.07;1.80;;;;;;;;;;4973283;28;20016;-72
2023/12/22 13:16:37;;;;;;;8.52;1.50;;;;;;;;;;4970860;28;20027;-72
2023/12/22 13:19:03;;;;;;;8.73;1.95;;;;;;;;;;4969291;28;20383;-71
2023/12/22 13:21:29;;;;;;;11.57;2.08;;;;;;;;;;4967667;28;20034;-71
2023/12/22 13:24:12;;;;;;;10.27;3.25;;;;;;;;;;4963565;28;20023;-72
2023/12/22 13:26:38;;;;;;;2.67;1.08;;;;;;;;;;4965943;28;20027;-69
2023/12/22 13:29:03;;;;;;;5.18;1.20;;;;;;;;;;4972427;28;20042;-72
2023/12/22 13:31:30;;;;;;;11.75;1.75;;;;;;;;;;4973061;28;20026;-72
2023/12/22 13:33:55;;;;;;;5.13;1.67;;;;;;;;;;4971394;28;20019;-71
2023/12/22 13:36:21;;;;;;;2.25;1.20;;;;;;;;;;4972208;28;20073;-71
2023/12/22 13:38:49;;;;;;;9.38;2.10;;;;;;;;;;4971767;28;20045;-71
2023/12/22 13:41:17;;;;;;;12.48;1.60;;;;;;;;;;4969889;28;20027;-69
2023/12/22 13:43:44;;;;;;;4.90;1.23;;;;;;;;;;4970508;28;20510;-71
2023/12/22 13:46:10;;;;;;;12.88;1.60;;;;;;;;;;4970376;28;20034;-72
2023/12/22 13:48:35;;;;;;;13.45;1.75;;;;;;;;;;4973140;28;20089;-73
2023/12/22 13:51:01;;;;;;;7.65;1.90;;;;;;;;;;4969647;28;20671;-72
2023/12/22 13:53:26;;;;;;;7.32;1.73;;;;;;;;;;4970741;28;20023;-72
2023/12/22 13:55:58;;;;;;;10.90;1.90;;;;;;;;;;4970863;28;20030;-71
2023/12/22 13:58:23;;;;;;;10.57;2.75;;;;;;;;;;4971196;28;20023;-71
2023/12/22 14:00:49;;;;;;;8.02;2.17;;;;;;;;;;4969077;28;20500;-71
2023/12/22 14:03:21;;;;;;;17.35;2.83;;;;;;;;;;4965303;28;20027;-72
2023/12/22 14:05:46;;;;;;;10.50;1.98;;;;;;;;;;4966391;28;20070;-72
2023/12/22 14:08:12;;;;;;;16.75;2.47;;;;;;;;;;4969599;28;20054;-72
2023/12/22 14:10:37;;;;;;;21.42;2.28;;;;;;;;;;4969802;28;20034;-69
2023/12/22 14:13:02;;;;;;;15.35;2.38;;;;;;;;;;4966008;28;20804;-72
2023/12/22 14:15:30;;;;;;;7.20;1.52;;;;;;;;;;4963908;28;20038;-71
2023/12/22 14:17:56;;;;;;;11.32;1.70;;;;;;;;;;4963701;28;20034;-72
2023/12/22 14:20:21;;;;;;;9.23;1.92;;;;;;;;;;4964087;28;20034;-69
2023/12/22 14:22:46;;;;;;;10.80;1.60;;;;;;;;;;4963200;28;20422;-72
2023/12/22 14:25:11;;;;;;;9.80;1.55;;;;;;;;;;4961854;28;20088;-72
2023/12/22 14:27:37;;;;;;;7.38;1.70;;;;;;;;;;4962263;28;20096;-72
2023/12/22 14:30:02;;;;;;;14.95;1.98;;;;;;;;;;4964653;28;20034;-73